createdAt,value
2023-11-20T00:00:07.834Z,85.15
2023-11-20T00:03:11.206Z,85.98
2023-11-20T00:06:14.243Z,85.87
2023-11-20T00:09:17.597Z,85.89
2023-11-20T00:12:23.294Z,85.51
2023-11-20T00:15:27.963Z,85.95
2023-11-20T00:18:30.941Z,86.14
2023-11-20T00:21:35.569Z,85.74
2023-11-20T00:24:39.277Z,85.70
2023-11-20T00:27:42.609Z,85.98
2023-11-20T00:30:46.909Z,86.17
2023-11-20T00:33:49.703Z,85.78
2023-11-20T00:36:52.709Z,85.29
2023-11-20T00:39:55.580Z,84.98
2023-11-20T00:42:58.645Z,85.52
2023-11-20T00:46:03.375Z,85.73
2023-11-20T00:49:07.029Z,85.93
2023-11-20T00:52:12.666Z,85.16
2023-11-20T00:55:15.659Z,85.54
2023-11-20T00:58:19.463Z,85.07
2023-11-20T01:01:23.982Z,85.18
2023-11-20T01:04:26.936Z,84.99
2023-11-20T01:07:29.921Z,85.33
2023-11-20T01:10:32.668Z,85.23
2023-11-20T01:13:35.592Z,84.78
2023-11-20T01:16:39.766Z,85.34
2023-11-20T01:19:42.950Z,85.78
2023-11-20T01:22:45.792Z,85.97
2023-11-20T01:25:48.957Z,85.48
2023-11-20T01:28:51.778Z,85.38
2023-11-20T01:31:56.080Z,85.00
2023-11-20T01:34:59.617Z,84.59
2023-11-20T01:38:02.647Z,85.57
2023-11-20T01:41:05.889Z,84.64
2023-11-20T01:44:08.799Z,84.90
2023-11-20T01:47:13.559Z,84.80
2023-11-20T01:50:17.317Z,84.80
2023-11-20T01:53:20.473Z,85.12
2023-11-20T01:56:23.804Z,85.59
2023-11-20T01:59:27.183Z,85.40
2023-11-20T02:02:32.254Z,85.50
2023-11-20T02:05:35.627Z,84.91
2023-11-20T02:08:38.531Z,84.77
2023-11-20T02:11:43.391Z,85.90
2023-11-20T02:14:46.372Z,85.42
2023-11-20T02:17:50.649Z,85.08
2023-11-20T02:20:53.534Z,84.71
2023-11-20T02:23:56.387Z,84.62
2023-11-20T02:27:10.238Z,85.29
2023-11-20T02:30:15.008Z,85.38
2023-11-20T02:33:17.746Z,85.33
2023-11-20T02:36:26.447Z,84.60
2023-11-20T02:39:29.177Z,84.75
2023-11-20T02:42:32.329Z,85.11
2023-11-20T02:45:37.214Z,84.54
2023-11-20T02:48:41.021Z,85.02
2023-11-20T02:51:44.074Z,84.67
2023-11-20T02:54:47.185Z,85.34
2023-11-20T02:57:49.993Z,85.01
2023-11-20T03:00:55.286Z,84.97
2023-11-20T03:03:58.479Z,85.32
2023-11-20T03:07:01.869Z,85.80
2023-11-20T03:10:06.542Z,85.68
2023-11-20T03:13:11.951Z,84.80
2023-11-20T03:16:16.158Z,85.67
2023-11-20T03:19:19.283Z,84.79
2023-11-20T03:22:22.137Z,84.86
2023-11-20T03:25:25.305Z,84.64
2023-11-20T03:28:28.056Z,84.85
2023-11-20T03:31:37.571Z,85.89
2023-11-20T03:34:40.522Z,85.98
2023-11-20T03:37:43.728Z,84.89
2023-11-20T03:40:47.084Z,85.91
2023-11-20T03:43:51.823Z,85.00
2023-11-20T03:46:56.501Z,85.43
2023-11-20T03:49:59.508Z,85.47
2023-11-20T03:53:02.239Z,85.82
2023-11-20T03:56:09.845Z,85.63
2023-11-20T03:59:12.735Z,85.51
2023-11-20T04:02:17.678Z,84.98
2023-11-20T04:05:21.289Z,85.77
2023-11-20T04:08:24.383Z,83.57
2023-11-20T04:11:27.373Z,84.64
2023-11-20T04:14:31.086Z,85.92
2023-11-20T04:17:36.060Z,85.63
2023-11-20T04:20:43.625Z,85.81
2023-11-20T04:23:46.935Z,85.61
2023-11-20T04:26:49.855Z,85.69
2023-11-20T04:29:53.042Z,86.08
2023-11-20T04:32:57.560Z,83.60
2023-11-20T04:36:03.427Z,84.86
2023-11-20T04:39:06.487Z,85.44
2023-11-20T04:42:09.193Z,85.57
2023-11-20T04:45:13.758Z,84.35
2023-11-20T04:48:18.893Z,84.00
2023-11-20T04:51:22.471Z,84.38
2023-11-20T04:54:25.385Z,84.27
2023-11-20T04:57:28.820Z,84.77
2023-11-20T05:00:32.551Z,85.52
2023-11-20T05:03:39.056Z,84.66
2023-11-20T05:06:41.895Z,84.79
2023-11-20T05:09:44.667Z,85.32
2023-11-20T05:12:47.735Z,85.31
2023-11-20T05:15:50.632Z,84.45
2023-11-20T05:18:54.991Z,85.47
2023-11-20T05:21:57.906Z,85.17
2023-11-20T05:25:01.017Z,85.08
2023-11-20T05:28:04.446Z,84.86
2023-11-20T05:31:07.532Z,85.90
2023-11-20T05:34:11.974Z,86.05
2023-11-20T05:37:14.894Z,85.67
2023-11-20T05:40:19.321Z,84.92
2023-11-20T05:43:22.176Z,85.67
2023-11-20T05:46:25.099Z,85.50
2023-11-20T05:49:30.283Z,86.31
2023-11-20T05:52:33.866Z,85.99
2023-11-20T05:55:36.969Z,86.11
2023-11-20T05:58:39.824Z,85.60
2023-11-20T06:01:43.662Z,85.60
2023-11-20T06:04:48.219Z,86.70
2023-11-20T06:07:52.884Z,86.42
2023-11-20T06:10:55.705Z,86.85
2023-11-20T06:13:58.984Z,86.51
2023-11-20T06:17:01.848Z,87.21
2023-11-20T06:20:09.743Z,86.21
2023-11-20T06:23:12.786Z,86.23
2023-11-20T06:26:15.602Z,86.19
2023-11-20T06:29:18.879Z,85.74
2023-11-20T06:32:22.702Z,85.75
2023-11-20T06:35:27.238Z,86.19
2023-11-20T06:38:32.140Z,85.99
2023-11-20T06:41:38.518Z,86.81
2023-11-20T06:44:41.284Z,86.42
2023-11-20T06:47:44.190Z,86.03
2023-11-20T06:50:48.504Z,86.04
2023-11-20T06:53:51.466Z,85.87
2023-11-20T06:56:55.030Z,86.43
2023-11-20T06:59:58.031Z,85.64
2023-11-20T07:03:00.893Z,86.10
2023-11-20T07:06:05.856Z,85.85
2023-11-20T07:09:13.456Z,85.90
2023-11-20T07:12:17.538Z,86.70
2023-11-20T07:15:20.340Z,86.16
2023-11-20T07:18:23.133Z,86.87
2023-11-20T07:21:27.280Z,86.77
2023-11-20T07:24:30.633Z,85.62
2023-11-20T07:27:33.489Z,86.30
2023-11-20T07:30:37.767Z,85.94
2023-11-20T07:33:40.906Z,85.95
2023-11-20T07:36:45.595Z,86.23
2023-11-20T07:39:48.440Z,85.96
2023-11-20T07:42:51.532Z,85.67
2023-11-20T07:45:54.422Z,86.13
2023-11-20T07:48:57.341Z,87.03
2023-11-20T07:52:01.489Z,86.69
2023-11-20T07:55:05.292Z,86.14
2023-11-20T07:58:08.023Z,86.61
2023-11-20T08:01:10.947Z,86.32
2023-11-20T08:04:17.582Z,86.28
2023-11-20T08:07:22.100Z,86.55
2023-11-20T08:10:25.037Z,85.73
2023-11-20T08:13:28.008Z,85.63
2023-11-20T08:16:30.868Z,85.02
2023-11-20T08:19:33.819Z,85.98
2023-11-20T08:22:39.342Z,85.46
2023-11-20T08:25:42.311Z,85.86
2023-11-20T08:28:45.176Z,85.42
2023-11-20T08:31:48.648Z,86.66
2023-11-20T08:34:52.126Z,87.30
2023-11-20T08:37:56.775Z,86.63
2023-11-20T08:40:59.614Z,85.32
2023-11-20T08:44:03.082Z,86.21
2023-11-20T08:47:07.283Z,86.12
2023-11-20T08:50:11.962Z,85.51
2023-11-20T08:53:16.713Z,86.48
2023-11-20T08:56:19.466Z,86.02
2023-11-20T08:59:22.636Z,84.98
2023-11-20T09:02:26.409Z,85.64
2023-11-20T09:05:29.693Z,85.78
2023-11-20T09:08:33.822Z,85.54
2023-11-20T09:11:36.793Z,86.04
2023-11-20T09:14:39.592Z,85.09
2023-11-20T09:17:43.591Z,85.44
2023-11-20T09:20:46.703Z,86.32
2023-11-20T09:23:51.145Z,86.04
2023-11-20T09:26:54.092Z,85.23
2023-11-20T09:29:57.557Z,85.87
2023-11-20T09:33:01.763Z,85.21
2023-11-20T09:36:04.900Z,84.98
2023-11-20T09:39:10.320Z,83.56
2023-11-20T09:42:13.098Z,84.36
2023-11-20T09:45:28.252Z,83.48
2023-11-20T09:48:34.584Z,84.16
2023-11-20T09:51:38.723Z,84.34
2023-11-20T09:54:45.140Z,83.25
2023-11-20T09:57:50.066Z,83.55
2023-11-20T10:00:58.861Z,84.09
2023-11-20T10:04:03.029Z,83.73
2023-11-20T10:07:10.244Z,83.20
2023-11-20T10:10:14.868Z,84.21
2023-11-20T10:13:19.108Z,83.14
2023-11-20T10:16:24.539Z,83.51
2023-11-20T10:19:27.715Z,83.42
2023-11-20T10:22:36.198Z,83.66
2023-11-20T10:25:40.280Z,83.53
2023-11-20T10:28:43.474Z,81.79
2023-11-20T10:31:47.778Z,83.15
2023-11-20T10:34:51.567Z,83.11
2023-11-20T10:37:59.198Z,83.83
2023-11-20T10:41:04.505Z,83.74
2023-11-20T10:44:08.682Z,83.51
2023-11-20T10:47:14.295Z,82.06
2023-11-20T10:50:18.815Z,82.29
2023-11-20T10:53:24.540Z,81.40
2023-11-20T10:56:32.995Z,82.63
2023-11-20T10:59:37.795Z,82.58
2023-11-20T11:02:43.236Z,82.32
2023-11-20T11:05:47.719Z,83.20
2023-11-20T11:08:52.018Z,83.28
2023-11-20T11:11:58.284Z,82.71
2023-11-20T11:15:01.026Z,82.82
2023-11-20T11:18:09.991Z,83.23
2023-11-20T11:21:17.597Z,83.35
2023-11-20T11:24:26.063Z,83.34
2023-11-20T11:27:38.144Z,83.14
2023-11-20T11:30:43.743Z,83.51
2023-11-20T11:34:18.742Z,83.58
2023-11-20T11:37:32.018Z,83.45
2023-11-20T11:40:50.247Z,83.22
2023-11-20T11:44:01.105Z,82.95
2023-11-20T11:47:05.230Z,82.85
2023-11-20T11:50:09.200Z,82.95
2023-11-20T11:53:12.864Z,83.33
2023-11-20T11:56:16.233Z,82.82
2023-11-20T11:59:27.652Z,83.17
2023-11-20T12:02:54.352Z,82.42
2023-11-20T12:06:16.007Z,82.85
2023-11-20T12:09:18.924Z,82.55
2023-11-20T12:12:21.676Z,83.53
2023-11-20T12:15:37.545Z,82.87
2023-11-20T12:18:41.263Z,82.97
2023-11-20T12:21:45.347Z,83.47
2023-11-20T12:24:48.197Z,83.20
2023-11-20T12:27:53.407Z,83.63
2023-11-20T12:30:57.613Z,83.98
2023-11-20T12:34:02.263Z,84.41
2023-11-20T12:37:05.843Z,83.40
2023-11-20T12:40:12.554Z,84.71
2023-11-20T12:43:15.877Z,84.47
2023-11-20T12:46:21.046Z,84.02
2023-11-20T12:49:24.379Z,84.50
2023-11-20T12:52:27.299Z,83.78
2023-11-20T12:55:30.690Z,84.15
2023-11-20T12:58:34.048Z,82.77
2023-11-20T13:01:38.527Z,84.00
2023-11-20T13:04:41.700Z,83.63
2023-11-20T13:07:46.816Z,83.68
2023-11-20T13:10:53.482Z,83.58
2023-11-20T13:13:56.541Z,82.90
2023-11-20T13:17:01.024Z,82.85
2023-11-20T13:20:07.050Z,82.79
2023-11-20T13:23:23.878Z,81.92
2023-11-20T13:26:27.636Z,82.72
2023-11-20T13:29:31.825Z,82.44
2023-11-20T13:32:38.676Z,82.22
2023-11-20T13:35:41.471Z,82.10
2023-11-20T13:38:44.403Z,82.50
2023-11-20T13:41:47.192Z,82.59
2023-11-20T13:44:49.925Z,82.88
2023-11-20T13:47:54.068Z,82.20
2023-11-20T13:50:57.270Z,82.56
2023-11-20T13:54:00.221Z,82.66
2023-11-20T13:57:04.820Z,82.79
2023-11-20T14:00:19.607Z,82.63
2023-11-20T14:03:24.118Z,82.78
2023-11-20T14:06:27.330Z,84.03
2023-11-20T14:09:30.472Z,83.60
2023-11-20T14:12:33.307Z,83.63
2023-11-20T14:15:37.318Z,83.56
2023-11-20T14:18:41.639Z,84.07
2023-11-20T14:21:45.993Z,83.75
2023-11-20T14:24:49.059Z,83.25
2023-11-20T14:27:52.329Z,84.35
2023-11-20T14:30:55.183Z,84.05
2023-11-20T14:33:59.462Z,84.98
2023-11-20T14:37:02.584Z,84.73
2023-11-20T14:40:09.568Z,84.90
2023-11-20T14:43:13.488Z,84.95
2023-11-20T14:46:18.031Z,85.15
2023-11-20T14:49:22.444Z,84.69
2023-11-20T14:52:25.491Z,84.34
2023-11-20T14:55:29.103Z,84.61
2023-11-20T14:58:36.222Z,85.03
2023-11-20T15:02:22.550Z,85.31
2023-11-20T15:05:27.362Z,84.57
2023-11-20T15:08:30.423Z,85.22
2023-11-20T15:11:33.715Z,85.14
2023-11-20T15:14:36.531Z,85.35
2023-11-20T15:17:39.855Z,85.15
2023-11-20T15:20:43.950Z,85.14
2023-11-20T15:23:46.890Z,85.27
2023-11-20T15:26:49.823Z,84.53
2023-11-20T15:29:52.671Z,84.83
2023-11-20T15:32:57.549Z,84.79
2023-11-20T15:36:03.024Z,85.23
2023-11-20T15:39:07.151Z,85.46
2023-11-20T15:42:10.148Z,85.32
2023-11-20T15:45:13.666Z,84.94
2023-11-20T15:48:19.357Z,85.31
2023-11-20T15:51:23.663Z,85.27
2023-11-20T15:54:26.466Z,85.35
2023-11-20T15:57:29.434Z,84.74
2023-11-20T16:00:34.223Z,85.07
2023-11-20T16:03:37.563Z,85.25
2023-11-20T16:06:42.197Z,85.85
2023-11-20T16:09:44.949Z,86.02
2023-11-20T16:12:47.875Z,85.73
2023-11-20T16:15:50.733Z,85.59
2023-11-20T16:18:53.794Z,84.41
2023-11-20T16:21:59.270Z,85.19
2023-11-20T16:25:02.136Z,84.44
2023-11-20T16:28:05.337Z,85.10
2023-11-20T16:31:08.401Z,84.95
2023-11-20T16:34:11.255Z,84.37
2023-11-20T16:37:18.938Z,84.71
2023-11-20T16:40:21.844Z,84.21
2023-11-20T16:43:25.002Z,85.40
2023-11-20T16:46:31.519Z,85.38
2023-11-20T16:49:36.964Z,85.66
2023-11-20T16:52:42.859Z,85.54
2023-11-20T16:55:45.596Z,86.18
2023-11-20T16:58:48.594Z,85.20
2023-11-20T17:01:51.868Z,84.74
2023-11-20T17:04:55.059Z,85.45
2023-11-20T17:07:59.338Z,85.04
2023-11-20T17:11:02.047Z,85.22
2023-11-20T17:14:05.400Z,84.97
2023-11-20T17:17:09.894Z,85.33
2023-11-20T17:20:13.475Z,85.96
2023-11-20T17:23:17.880Z,84.42
2023-11-20T17:26:20.829Z,85.58
2023-11-20T17:29:24.107Z,85.86
2023-11-20T17:32:27.259Z,85.29
2023-11-20T17:35:30.476Z,85.40
2023-11-20T17:38:34.836Z,84.23
2023-11-20T17:41:38.503Z,85.02
2023-11-20T17:44:42.879Z,85.28
2023-11-20T17:47:45.806Z,85.87
2023-11-20T17:50:48.937Z,86.10
2023-11-20T17:53:53.153Z,86.19
2023-11-20T17:56:55.953Z,86.93
2023-11-20T18:00:00.650Z,86.56
2023-11-20T18:03:07.977Z,86.92
2023-11-20T18:06:11.450Z,86.13
2023-11-20T18:09:20.836Z,86.96
2023-11-20T18:12:23.728Z,87.10
2023-11-20T18:15:26.637Z,85.89
2023-11-20T18:18:29.427Z,85.74
2023-11-20T18:21:43.146Z,83.95
2023-11-20T18:24:50.905Z,84.25
2023-11-20T18:27:54.022Z,83.59
2023-11-20T18:30:57.210Z,83.14
2023-11-20T18:34:00.493Z,83.97
2023-11-20T18:37:05.175Z,85.17
2023-11-20T18:40:15.140Z,84.99
2023-11-20T18:43:20.254Z,84.61
2023-11-20T18:46:23.170Z,84.81
2023-11-20T18:49:25.985Z,84.08
2023-11-20T18:52:28.980Z,84.17
2023-11-20T18:55:33.740Z,85.10
2023-11-20T18:58:36.632Z,85.19
2023-11-20T19:01:39.697Z,84.95
2023-11-20T19:04:43.978Z,84.58
2023-11-20T19:07:46.877Z,83.84
2023-11-20T19:10:51.083Z,83.93
2023-11-20T19:13:54.123Z,85.85
2023-11-20T19:16:57.184Z,84.37
2023-11-20T19:20:00.134Z,83.47
2023-11-20T19:23:04.339Z,83.75
2023-11-20T19:26:11.876Z,83.25
2023-11-20T19:29:16.504Z,82.77
2023-11-20T19:32:19.624Z,83.15
2023-11-20T19:35:24.223Z,84.73
2023-11-20T19:38:27.846Z,84.08
2023-11-20T19:41:32.111Z,84.26
2023-11-20T19:44:35.332Z,84.68
2023-11-20T19:47:38.603Z,83.93
2023-11-20T19:50:41.688Z,84.21
2023-11-20T19:53:49.707Z,83.90
2023-11-20T19:56:53.917Z,83.44
2023-11-20T19:59:58.692Z,84.09
2023-11-20T20:03:01.599Z,83.48
2023-11-20T20:06:04.551Z,83.46
2023-11-20T20:09:10.048Z,83.56
2023-11-20T20:12:14.597Z,84.45
2023-11-20T20:15:17.401Z,84.36
2023-11-20T20:18:20.848Z,84.74
2023-11-20T20:21:23.634Z,84.31
2023-11-20T20:24:26.664Z,83.79
2023-11-20T20:27:30.951Z,84.49
2023-11-20T20:30:33.924Z,84.68
2023-11-20T20:33:36.861Z,84.54
2023-11-20T20:36:40.215Z,83.74
2023-11-20T20:42:50.283Z,84.89
2023-11-20T20:45:53.212Z,84.18
2023-11-20T20:48:55.944Z,85.21
2023-11-20T20:51:59.072Z,84.15
2023-11-20T20:55:02.233Z,84.90
2023-11-20T20:58:06.621Z,84.96
2023-11-20T21:01:09.736Z,84.91
2023-11-20T21:04:12.690Z,84.76
2023-11-20T21:07:16.360Z,84.07
2023-11-20T21:10:19.189Z,85.20
2023-11-20T21:13:23.312Z,84.81
2023-11-20T21:16:26.100Z,84.78
2023-11-20T21:19:29.839Z,84.15
2023-11-20T21:22:32.855Z,84.62
2023-11-20T21:25:36.053Z,84.08
2023-11-20T21:28:41.519Z,85.62
2023-11-20T21:31:46.863Z,85.42
2023-11-20T21:34:55.556Z,85.43
2023-11-20T21:38:05.227Z,85.80
2023-11-20T21:41:07.981Z,85.52
2023-11-20T21:44:12.930Z,86.34
2023-11-20T21:47:15.949Z,86.73
2023-11-20T21:50:18.837Z,86.69
2023-11-20T21:53:21.769Z,86.30
2023-11-20T21:56:24.719Z,85.24
2023-11-20T21:59:28.963Z,85.59
2023-11-20T22:02:32.005Z,85.81
2023-11-20T22:05:35.046Z,86.32
2023-11-20T22:08:43.939Z,85.66
2023-11-20T22:11:47.752Z,86.50
2023-11-20T22:14:53.754Z,85.85
2023-11-20T22:17:56.615Z,85.98
2023-11-20T22:20:59.545Z,85.36
2023-11-20T22:24:02.330Z,85.56
2023-11-20T22:27:06.673Z,86.39
2023-11-20T22:30:11.790Z,86.09
2023-11-20T22:33:14.639Z,86.91
2023-11-20T22:36:17.533Z,86.41
2023-11-20T22:39:20.335Z,85.56
2023-11-20T22:42:23.377Z,86.17
2023-11-20T22:45:27.813Z,85.33
2023-11-20T22:48:30.782Z,85.07
2023-11-20T22:51:33.682Z,84.84
2023-11-20T22:54:36.658Z,83.92
2023-11-20T22:57:39.876Z,83.45
2023-11-20T23:00:47.298Z,84.12
2023-11-20T23:03:50.524Z,84.08
2023-11-20T23:06:54.811Z,83.12
2023-11-20T23:09:58.814Z,83.69
2023-11-20T23:13:02.290Z,82.66
2023-11-20T23:16:07.998Z,84.21
2023-11-20T23:19:12.970Z,84.55
2023-11-20T23:22:15.987Z,84.12
2023-11-20T23:25:20.598Z,82.10
2023-11-20T23:28:25.438Z,80.74
2023-11-20T23:31:29.629Z,80.05
2023-11-20T23:34:33.451Z,80.15
2023-11-20T23:37:36.680Z,78.47
2023-11-20T23:40:40.006Z,79.42
2023-11-20T23:43:43.296Z,79.06
2023-11-20T23:46:48.495Z,79.74
2023-11-20T23:49:51.399Z,78.96
2023-11-20T23:52:54.745Z,79.16
2023-11-20T23:55:57.923Z,77.47
2023-11-20T23:59:00.978Z,78.31
